Time,TemperatureF,DewpointF,PressureIn,WindDirection,WindDirectionDegrees,WindSpeedMPH,WindSpeedGustMPH,Humidity,HourlyPrecipIn,Conditions,Clouds,dailyrainin,SoftwareType,DateUTC
2013-03-21 00:00:00,18.0,8.5,29.73,South,180,0.0,0.0,66,0.00,RA,,0.00,WeatherDisplay:10.37,2013-03-21 04:00:00,
2013-03-21 00:05:00,17.8,8.7,29.73,South,180,0.0,0.0,67,0.00,RA,,0.00,WeatherDisplay:10.37,2013-03-21 04:05:00,
2013-03-21 00:10:00,17.4,8.7,29.73,South,180,0.0,0.0,68,0.00,,,0.00,WeatherDisplay:10.37,2013-03-21 04:10:00,
2013-03-21 00:15:00,16.9,7.8,29.73,South,180,0.0,0.0,67,0.00,,,0.00,WeatherDisplay:10.37,2013-03-21 04:15:00,
2013-03-21 00:20:00,16.7,8.0,29.73,South,180,0.0,0.0,68,0.00,,,0.00,WeatherDisplay:10.37,2013-03-21 04:20:00,
2013-03-21 00:25:00,16.9,8.1,29.73,South,180,0.0,0.0,68,0.00,,,0.00,WeatherDisplay:10.37,2013-03-21 04:25:00,
2013-03-21 00:30:00,17.1,8.3,29.73,South,180,0.0,0.0,68,0.00,,,0.00,WeatherDisplay:10.37,2013-03-21 04:30:00,
2013-03-21 00:35:00,17.2,8.8,29.73,South,180,1.1,0.0,69,0.00,,,0.00,WeatherDisplay:10.37,2013-03-21 04:35:00,
2013-03-21 00:40:00,17.2,8.8,29.72,South,180,0.0,0.0,69,0.00,,,0.00,WeatherDisplay:10.37,2013-03-21 04:40:00,
2013-03-21 00:45:00,17.4,9.0,29.72,SW,225,1.1,0.0,69,0.00,,,0.00,WeatherDisplay:10.37,2013-03-21 04:45:00,
2013-03-21 00:50:00,17.6,9.2,29.72,SW,225,2.3,2.3,69,0.00,,,0.00,WeatherDisplay:10.37,2013-03-21 04:50:00,
2013-03-21 00:55:00,17.6,9.2,29.72,NE,45,1.1,0.0,69,0.00,,,0.00,WeatherDisplay:10.37,2013-03-21 04:55:00,
2013-03-21 01:00:00,17.4,9.3,29.72,SW,225,1.1,0.0,70,0.00,,,0.00,WeatherDisplay:10.37,2013-03-21 05:00:00,
2013-03-21 01:05:00,17.6,9.2,29.72,SW,225,1.1,0.0,69,0.00,,,0.00,WeatherDisplay:10.37,2013-03-21 05:05:00,
2013-03-21 01:10:00,17.8,9.3,29.71,SW,225,2.3,0.0,69,0.00,,,0.00,WeatherDisplay:10.37,2013-03-21 05:10:00,
2013-03-21 01:16:00,17.8,9.3,29.72,SW,225,1.1,0.0,69,0.00,,,0.00,WeatherDisplay:10.37,2013-03-21 05:16:00,
2013-03-21 01:20:00,18.0,9.5,29.72,SW,225,1.1,0.0,69,0.00,,,0.00,WeatherDisplay:10.37,2013-03-21 05:20:00,
2013-03-21 01:26:00,18.1,10.0,29.71,South,180,2.3,0.0,70,0.00,,,0.00,WeatherDisplay:10.37,2013-03-21 05:26:00,
2013-03-21 01:31:00,18.1,10.0,29.71,NW,315,1.1,0.0,70,0.00,,,0.00,WeatherDisplay:10.37,2013-03-21 05:31:00,
2013-03-21 01:36:00,18.1,9.7,29.71,West,270,1.1,0.0,69,0.00,,,0.00,WeatherDisplay:10.37,2013-03-21 05:36:00,
2013-03-21 01:41:00,18.1,9.7,29.71,North,0,1.1,0.0,69,0.00,,,0.00,WeatherDisplay:10.37,2013-03-21 05:41:00,
2013-03-21 01:46:00,18.3,9.8,29.71,SW,225,1.1,1.1,69,0.00,,,0.00,WeatherDisplay:10.37,2013-03-21 05:46:00,
2013-03-21 01:51:00,18.3,9.8,29.71,SW,225,1.1,0.0,69,0.00,,,0.00,WeatherDisplay:10.37,2013-03-21 05:51:00,
2013-03-21 01:56:00,18.7,10.2,29.71,SE,135,3.5,3.5,69,0.00,,,0.00,WeatherDisplay:10.37,2013-03-21 05:56:00,
2013-03-21 02:01:00,19.0,10.9,29.71,SW,225,2.3,2.3,70,0.00,,,0.00,WeatherDisplay:10.37,2013-03-21 06:01:00,
2013-03-21 02:06:00,19.2,10.7,29.71,West,270,1.1,1.1,69,0.00,,,0.00,WeatherDisplay:10.37,2013-03-21 06:06:00,
2013-03-21 02:11:00,19.2,10.7,29.71,South,180,3.5,3.5,69,0.00,,,0.00,WeatherDisplay:10.37,2013-03-21 06:11:00,
2013-03-21 02:16:00,19.2,10.4,29.71,NW,315,2.3,2.3,68,0.00,,,0.00,WeatherDisplay:10.37,2013-03-21 06:16:00,
2013-03-21 02:21:00,19.0,10.2,29.71,NE,45,1.1,0.0,68,0.00,,,0.00,WeatherDisplay:10.37,2013-03-21 06:21:00,
2013-03-21 02:26:00,18.9,10.0,29.71,NW,315,2.3,0.0,68,0.00,,,0.00,WeatherDisplay:10.37,2013-03-21 06:26:00,
2013-03-21 02:31:00,18.7,9.9,29.71,NW,315,0.0,0.0,68,0.00,,,0.00,WeatherDisplay:10.37,2013-03-21 06:31:00,
2013-03-21 02:37:00,18.7,9.5,29.71,SW,225,1.1,0.0,67,0.00,,,0.00,WeatherDisplay:10.37,2013-03-21 06:37:00,
2013-03-21 02:42:00,18.5,9.4,29.71,South,180,1.6,0.0,67,0.00,,,0.00,WeatherDisplay:10.37,2013-03-21 06:42:00,
2013-03-21 02:47:00,18.5,9.4,29.71,West,270,1.1,0.0,67,0.00,,,0.00,WeatherDisplay:10.37,2013-03-21 06:47:00,
2013-03-21 02:52:00,18.5,9.7,29.71,South,180,1.1,0.0,68,0.00,,,0.00,WeatherDisplay:10.37,2013-03-21 06:52:00,
2013-03-21 02:57:00,18.5,9.7,29.71,North,0,1.1,0.0,68,0.00,,,0.00,WeatherDisplay:10.37,2013-03-21 06:57:00,
2013-03-21 03:02:00,18.5,9.7,29.71,NW,315,1.1,0.0,68,0.00,,,0.00,WeatherDisplay:10.37,2013-03-21 07:02:00,
2013-03-21 03:07:00,18.3,9.5,29.71,NW,315,1.1,0.0,68,0.00,,,0.00,WeatherDisplay:10.37,2013-03-21 07:07:00,
2013-03-21 03:12:00,18.3,9.5,29.71,North,0,2.3,2.3,68,0.00,,,0.00,WeatherDisplay:10.37,2013-03-21 07:12:00,
2013-03-21 03:17:00,18.7,9.9,29.71,North,0,2.3,2.3,68,0.00,,,0.00,WeatherDisplay:10.37,2013-03-21 07:17:00,
2013-03-21 03:22:00,18.9,10.0,29.70,West,270,1.6,1.6,68,0.00,,,0.00,WeatherDisplay:10.37,2013-03-21 07:22:00,
2013-03-21 03:27:00,18.9,10.4,29.70,West,270,1.1,1.1,69,0.00,,,0.00,WeatherDisplay:10.37,2013-03-21 07:27:00,
2013-03-21 03:34:00,18.7,10.2,29.70,West,270,1.1,0.0,69,0.00,,,0.00,WeatherDisplay:10.37,2013-03-21 07:34:00,
2013-03-21 03:39:00,18.7,10.2,29.69,North,0,2.3,2.3,69,0.00,,,0.00,WeatherDisplay:10.37,2013-03-21 07:39:00,
2013-03-21 03:44:00,18.7,10.2,29.69,West,270,1.1,0.0,69,0.00,,,0.00,WeatherDisplay:10.37,2013-03-21 07:44:00,
2013-03-21 03:49:00,18.5,10.0,29.69,SW,225,1.1,0.0,69,0.00,,,0.00,WeatherDisplay:10.37,2013-03-21 07:49:00,
2013-03-21 03:54:00,18.5,10.0,29.69,NW,315,1.1,0.0,69,0.00,,,0.00,WeatherDisplay:10.37,2013-03-21 07:54:00,
2013-03-21 03:59:00,18.3,9.8,29.69,West,270,1.1,0.0,69,0.00,,,0.00,WeatherDisplay:10.37,2013-03-21 07:59:00,
2013-03-21 04:04:00,18.1,9.7,29.69,West,270,1.1,0.0,69,0.00,,,0.00,WeatherDisplay:10.37,2013-03-21 08:04:00,
2013-03-21 04:09:00,18.0,9.5,29.69,West,270,0.0,0.0,69,0.00,,,0.00,WeatherDisplay:10.37,2013-03-21 08:09:00,
2013-03-21 04:14:00,18.1,9.7,29.69,West,270,1.1,0.0,69,0.00,,,0.00,WeatherDisplay:10.37,2013-03-21 08:14:00,
2013-03-21 04:19:00,18.0,9.5,29.69,West,270,1.1,0.0,69,0.00,,,0.00,WeatherDisplay:10.37,2013-03-21 08:19:00,
2013-03-21 04:24:00,18.0,9.5,29.69,NW,315,2.3,0.0,69,0.00,,,0.00,WeatherDisplay:10.37,2013-03-21 08:24:00,
2013-03-21 04:29:00,18.1,9.7,29.69,West,270,1.1,0.0,69,0.00,,,0.00,WeatherDisplay:10.37,2013-03-21 08:29:00,
2013-03-21 04:34:00,18.3,10.2,29.68,West,270,1.1,0.0,70,0.00,,,0.00,WeatherDisplay:10.37,2013-03-21 08:34:00,
2013-03-21 04:39:00,18.3,10.2,29.68,West,270,1.1,0.0,70,0.00,,,0.00,WeatherDisplay:10.37,2013-03-21 08:39:00,
2013-03-21 04:44:00,18.1,10.0,29.67,NW,315,1.1,1.1,70,0.00,,,0.00,WeatherDisplay:10.37,2013-03-21 08:44:00,
2013-03-21 04:49:00,18.0,9.8,29.67,NW,315,1.1,0.0,70,0.00,,,0.00,WeatherDisplay:10.37,2013-03-21 08:49:00,
2013-03-21 04:54:00,17.8,9.6,29.67,West,270,2.3,2.3,70,0.00,,,0.00,WeatherDisplay:10.37,2013-03-21 08:54:00,
2013-03-21 04:59:00,17.6,9.5,29.67,West,270,1.1,0.0,70,0.00,,,0.00,WeatherDisplay:10.37,2013-03-21 08:59:00,
2013-03-21 05:04:00,17.4,9.6,29.68,WNW,292,1.1,0.0,71,0.00,,,0.00,WeatherDisplay:10.37,2013-03-21 09:04:00,
2013-03-21 05:09:00,17.2,9.4,29.67,NW,315,1.1,0.0,71,0.00,,,0.00,WeatherDisplay:10.37,2013-03-21 09:09:00,
2013-03-21 05:14:00,17.2,9.4,29.67,NW,315,1.1,0.0,71,0.00,,,0.00,WeatherDisplay:10.37,2013-03-21 09:14:00,
2013-03-21 05:19:00,17.1,9.3,29.67,NW,315,1.1,0.0,71,0.00,,,0.00,WeatherDisplay:10.37,2013-03-21 09:19:00,
2013-03-21 05:24:00,16.7,8.9,29.67,NW,315,0.0,0.0,71,0.00,,,0.00,WeatherDisplay:10.37,2013-03-21 09:24:00,
2013-03-21 05:29:00,16.7,8.9,29.67,SE,135,1.1,0.0,71,0.00,,,0.00,WeatherDisplay:10.37,2013-03-21 09:29:00,
2013-03-21 05:34:00,16.7,8.9,29.67,West,270,1.1,1.1,71,0.00,,,0.00,WeatherDisplay:10.37,2013-03-21 09:34:00,
2013-03-21 05:39:00,16.9,9.1,29.67,West,270,1.1,1.1,71,0.00,,,0.00,WeatherDisplay:10.37,2013-03-21 09:39:00,
2013-03-21 05:44:00,16.9,9.4,29.67,West,270,1.1,0.0,72,0.00,,,0.00,WeatherDisplay:10.37,2013-03-21 09:44:00,
2013-03-21 05:49:00,16.9,9.4,29.68,South,180,1.1,1.1,72,0.00,,,0.00,WeatherDisplay:10.37,2013-03-21 09:49:00,
2013-03-21 05:55:00,17.1,9.6,29.67,NE,45,1.6,0.0,72,0.00,,,0.00,WeatherDisplay:10.37,2013-03-21 09:55:00,
2013-03-21 06:00:00,17.1,9.6,29.67,NW,315,1.1,0.0,72,0.00,,,0.00,WeatherDisplay:10.37,2013-03-21 10:00:00,
2013-03-21 06:05:00,17.1,9.6,29.67,SW,225,1.1,1.1,72,0.00,,,0.00,WeatherDisplay:10.37,2013-03-21 10:05:00,
2013-03-21 06:10:00,17.1,9.6,29.68,NW,315,1.1,0.0,72,0.00,,,0.00,WeatherDisplay:10.37,2013-03-21 10:10:00,
2013-03-21 06:15:00,17.1,9.6,29.68,NW,315,1.1,0.0,72,0.00,,,0.00,WeatherDisplay:10.37,2013-03-21 10:15:00,
2013-03-21 06:20:00,17.1,9.6,29.68,West,270,1.1,0.0,72,0.00,,,0.00,WeatherDisplay:10.37,2013-03-21 10:20:00,
2013-03-21 06:25:00,17.2,9.8,29.68,NW,315,2.3,2.3,72,0.00,,,0.00,WeatherDisplay:10.37,2013-03-21 10:25:00,
2013-03-21 06:30:00,17.4,9.9,29.68,South,180,1.1,0.0,72,0.00,,,0.00,WeatherDisplay:10.37,2013-03-21 10:30:00,
2013-03-21 06:35:00,17.2,9.8,29.67,SW,225,0.0,0.0,72,0.00,,,0.00,WeatherDisplay:10.37,2013-03-21 10:35:00,
2013-03-21 06:40:00,17.1,9.6,29.68,SW,225,1.1,0.0,72,0.00,,,0.00,WeatherDisplay:10.37,2013-03-21 10:40:00,
2013-03-21 06:45:00,16.9,9.4,29.68,SW,225,1.1,0.0,72,0.00,,,0.00,WeatherDisplay:10.37,2013-03-21 10:45:00,
2013-03-21 06:50:00,16.9,9.4,29.67,SW,225,2.3,2.3,72,0.00,,,0.00,WeatherDisplay:10.37,2013-03-21 10:50:00,
2013-03-21 06:55:00,16.9,9.4,29.68,NW,315,3.5,3.5,72,0.00,,,0.00,WeatherDisplay:10.37,2013-03-21 10:55:00,
2013-03-21 07:00:00,16.9,9.4,29.68,SW,225,1.1,0.0,72,0.00,,,0.00,WeatherDisplay:10.37,2013-03-21 11:00:00,
2013-03-21 07:05:00,16.9,9.4,29.68,West,270,3.5,3.5,72,0.00,,,0.00,WeatherDisplay:10.37,2013-03-21 11:05:00,
2013-03-21 07:10:00,17.2,9.8,29.67,SW,225,3.5,3.5,72,0.00,,,0.00,WeatherDisplay:10.37,2013-03-21 11:10:00,
2013-03-21 07:15:00,17.4,10.2,29.67,SW,225,3.5,3.5,73,0.00,,,0.00,WeatherDisplay:10.37,2013-03-21 11:15:00,
2013-03-21 07:20:00,17.6,10.1,29.68,SW,225,2.3,3.1,72,0.00,,,0.00,WeatherDisplay:10.37,2013-03-21 11:20:00,
2013-03-21 07:25:00,17.6,9.8,29.67,SW,225,3.5,0.0,71,0.00,,,0.00,WeatherDisplay:10.37,2013-03-21 11:25:00,
2013-03-21 07:30:00,17.6,9.8,29.67,North,0,2.3,2.3,71,0.00,,,0.00,WeatherDisplay:10.37,2013-03-21 11:30:00,
2013-03-21 07:35:00,17.6,9.8,29.67,West,270,2.3,2.3,71,0.00,,,0.00,WeatherDisplay:10.37,2013-03-21 11:35:00,
2013-03-21 07:40:00,17.8,10.0,29.67,NW,315,2.3,2.3,71,0.00,,,0.00,WeatherDisplay:10.37,2013-03-21 11:40:00,
2013-03-21 07:45:00,18.0,10.1,29.67,NW,315,1.1,1.1,71,0.00,,,0.00,WeatherDisplay:10.37,2013-03-21 11:45:00,
2013-03-21 07:50:00,18.1,10.3,29.67,NE,45,2.3,2.3,71,0.00,,,0.00,WeatherDisplay:10.37,2013-03-21 11:50:00,
2013-03-21 07:55:00,18.3,10.5,29.68,NW,315,1.1,1.1,71,0.00,,,0.00,WeatherDisplay:10.37,2013-03-21 11:55:00,
2013-03-21 08:00:00,18.9,11.0,29.68,West,270,3.5,3.5,71,0.00,,,0.00,WeatherDisplay:10.37,2013-03-21 12:00:00,
2013-03-21 08:05:00,19.2,11.4,29.67,NW,315,2.3,2.3,71,0.00,,,0.00,WeatherDisplay:10.37,2013-03-21 12:05:00,
2013-03-21 08:10:00,19.9,13.3,29.67,West,270,3.5,3.5,75,0.00,,,0.00,WeatherDisplay:10.37,2013-03-21 12:10:00,
2013-03-21 08:15:00,20.7,14.0,29.68,NW,315,3.5,3.5,75,0.00,,,0.00,WeatherDisplay:10.37,2013-03-21 12:15:00,
2013-03-21 08:20:00,21.2,13.9,29.68,West,270,3.5,3.5,73,0.00,,,0.00,WeatherDisplay:10.37,2013-03-21 12:20:00,
2013-03-21 08:25:00,21.9,14.3,29.68,West,270,2.3,2.3,72,0.00,,,0.00,WeatherDisplay:10.37,2013-03-21 12:25:00,
2013-03-21 08:30:00,22.6,14.3,29.68,NW,315,1.1,1.6,70,0.00,,,0.00,WeatherDisplay:10.37,2013-03-21 12:30:00,
2013-03-21 08:35:00,22.6,13.7,29.67,NW,315,4.6,4.6,68,0.00,,,0.00,WeatherDisplay:10.37,2013-03-21 12:35:00,
2013-03-21 08:40:00,22.6,13.0,29.67,NW,315,5.8,5.8,66,0.00,,,0.00,WeatherDisplay:10.37,2013-03-21 12:40:00,
2013-03-21 08:45:00,22.6,12.6,29.67,NW,315,3.5,3.5,65,0.00,,,0.00,WeatherDisplay:10.37,2013-03-21 12:45:00,
2013-03-21 08:50:00,23.0,12.3,29.67,West,270,3.5,3.5,63,0.00,,,0.00,WeatherDisplay:10.37,2013-03-21 12:50:00,
2013-03-21 08:55:00,23.2,12.4,29.67,NW,315,3.8,3.8,63,0.00,,,0.00,WeatherDisplay:10.37,2013-03-21 12:55:00,
2013-03-21 09:00:00,23.0,11.9,29.67,West,270,3.5,3.5,62,0.00,,,0.00,WeatherDisplay:10.37,2013-03-21 13:00:00,
2013-03-21 09:05:00,23.4,11.9,29.67,West,270,3.5,3.5,61,0.00,,,0.00,WeatherDisplay:10.37,2013-03-21 13:05:00,
2013-03-21 09:10:00,23.9,12.0,29.67,NW,315,3.5,3.5,60,0.00,,,0.00,WeatherDisplay:10.37,2013-03-21 13:10:00,
2013-03-21 09:15:00,24.4,12.1,29.67,NW,315,3.5,3.5,59,0.00,,,0.00,WeatherDisplay:10.37,2013-03-21 13:15:00,
2013-03-21 09:20:00,24.8,11.7,29.66,NW,315,6.9,6.9,57,0.00,,,0.00,WeatherDisplay:10.37,2013-03-21 13:20:00,
2013-03-21 09:25:00,25.2,11.2,29.66,SW,225,5.8,5.8,55,0.00,,,0.00,WeatherDisplay:10.37,2013-03-21 13:25:00,
2013-03-21 09:30:00,25.3,10.6,29.66,West,270,9.2,9.2,53,0.00,,,0.00,WeatherDisplay:10.37,2013-03-21 13:30:00,
2013-03-21 09:35:00,26.2,11.4,29.67,North,0,2.3,3.8,53,0.00,,,0.00,WeatherDisplay:10.37,2013-03-21 13:35:00,
2013-03-21 09:40:00,26.6,10.4,29.66,West,270,8.1,8.1,50,0.00,,,0.00,WeatherDisplay:10.37,2013-03-21 13:40:00,
2013-03-21 09:45:00,26.6,9.5,29.66,SE,135,3.5,3.5,48,0.00,,,0.00,WeatherDisplay:10.37,2013-03-21 13:45:00,
2013-03-21 09:50:00,27.1,10.0,29.67,NW,315,8.1,8.1,48,0.00,,,0.00,WeatherDisplay:10.37,2013-03-21 13:50:00,
2013-03-21 09:55:00,27.9,10.2,29.66,SW,225,10.4,10.4,47,0.00,,,0.00,WeatherDisplay:10.37,2013-03-21 13:55:00,
2013-03-21 10:00:00,28.2,10.1,29.66,North,0,5.8,5.8,46,0.00,,,0.00,WeatherDisplay:10.37,2013-03-21 14:00:00,
2013-03-21 10:05:00,28.4,12.1,29.67,SW,225,5.8,5.8,50,0.00,,,0.00,WeatherDisplay:10.37,2013-03-21 14:05:00,
2013-03-21 10:10:00,28.4,11.6,29.66,South,180,10.4,10.4,49,0.00,,,0.00,WeatherDisplay:10.37,2013-03-21 14:10:00,
2013-03-21 10:15:00,27.7,8.6,29.67,West,270,6.9,6.9,44,0.00,,,0.00,WeatherDisplay:10.37,2013-03-21 14:15:00,
2013-03-21 10:20:00,27.3,7.7,29.67,NW,315,5.8,5.8,43,0.00,,,0.00,WeatherDisplay:10.37,2013-03-21 14:20:00,
2013-03-21 10:25:00,29.1,11.8,29.67,SW,225,8.1,8.1,48,0.00,,,0.00,WeatherDisplay:10.37,2013-03-21 14:25:00,
2013-03-21 10:30:00,29.5,11.7,29.66,South,180,6.9,6.9,47,0.00,,,0.00,WeatherDisplay:10.37,2013-03-21 14:30:00,
2013-03-21 10:36:00,30.0,12.2,29.67,SW,225,6.9,6.9,47,0.00,,,0.00,WeatherDisplay:10.37,2013-03-21 14:36:00,
2013-03-21 10:41:00,29.8,11.5,29.67,SW,225,8.1,8.1,46,0.00,,,0.00,WeatherDisplay:10.37,2013-03-21 14:41:00,
2013-03-21 10:46:00,29.5,11.7,29.66,SW,225,8.1,8.1,47,0.00,,,0.00,WeatherDisplay:10.37,2013-03-21 14:46:00,
2013-03-21 10:51:00,28.9,11.2,29.67,West,270,5.8,5.8,47,0.00,,,0.00,WeatherDisplay:10.37,2013-03-21 14:51:00,
2013-03-21 10:56:00,28.8,11.0,29.67,SW,225,5.8,5.8,47,0.00,,,0.00,WeatherDisplay:10.37,2013-03-21 14:56:00,
2013-03-21 11:01:00,30.4,12.0,29.67,SW,225,5.8,5.8,46,0.00,,,0.00,WeatherDisplay:10.37,2013-03-21 15:01:00,
2013-03-21 11:06:00,29.7,11.4,29.67,SW,225,5.8,5.8,46,0.00,,,0.00,WeatherDisplay:10.37,2013-03-21 15:06:00,
2013-03-21 11:11:00,28.9,10.2,29.66,West,270,12.7,12.7,45,0.00,CLR,,0.00,WeatherDisplay:10.37,2013-03-21 15:11:00,
2013-03-21 11:16:00,30.2,11.4,29.66,SW,225,12.7,12.7,45,0.00,CLR,,0.00,WeatherDisplay:10.37,2013-03-21 15:16:00,
2013-03-21 11:21:00,30.7,12.4,29.66,SE,135,9.2,9.2,46,0.00,CLR,,0.00,WeatherDisplay:10.37,2013-03-21 15:21:00,
2013-03-21 11:26:00,31.8,13.4,29.66,NW,315,11.5,11.5,46,0.01,RA,,0.01,WeatherDisplay:10.37,2013-03-21 15:26:00,
2013-03-21 11:31:00,31.5,12.5,29.66,South,180,10.4,10.4,45,0.01,RA,,0.01,WeatherDisplay:10.37,2013-03-21 15:31:00,
2013-03-21 11:36:00,31.1,12.2,29.66,South,180,15.0,15.0,45,0.01,CLR,,0.01,WeatherDisplay:10.37,2013-03-21 15:36:00,
2013-03-21 11:41:00,29.3,11.1,29.66,SW,225,11.5,11.5,46,0.01,CLR,,0.01,WeatherDisplay:10.37,2013-03-21 15:41:00,
2013-03-21 11:46:00,30.2,12.4,29.66,SW,225,10.4,10.4,47,0.01,,,0.01,WeatherDisplay:10.37,2013-03-21 15:46:00,
2013-03-21 11:51:00,28.8,11.0,29.66,West,270,15.0,15.0,47,0.01,,,0.01,WeatherDisplay:10.37,2013-03-21 15:51:00,
2013-03-21 11:56:00,29.8,13.0,29.66,SSW,202,8.1,8.1,49,0.01,,,0.01,WeatherDisplay:10.37,2013-03-21 15:56:00,
2013-03-21 12:01:00,28.4,11.6,29.67,South,180,10.4,10.4,49,0.01,,,0.01,WeatherDisplay:10.37,2013-03-21 16:01:00,
2013-03-21 12:07:00,28.2,10.1,29.67,South,180,11.5,11.5,46,0.01,,,0.01,WeatherDisplay:10.37,2013-03-21 16:07:00,
2013-03-21 12:12:00,28.0,9.9,29.66,SW,225,9.2,9.2,46,0.01,,,0.01,WeatherDisplay:10.37,2013-03-21 16:12:00,
2013-03-21 12:17:00,28.2,11.0,29.66,SW,225,8.1,8.1,48,0.01,,,0.01,WeatherDisplay:10.37,2013-03-21 16:17:00,
2013-03-21 12:22:00,29.1,14.1,29.66,NW,315,5.8,5.8,53,0.01,,,0.01,WeatherDisplay:10.37,2013-03-21 16:22:00,
2013-03-21 12:27:00,29.5,14.0,29.65,West,270,10.4,10.4,52,0.00,,,0.01,WeatherDisplay:10.37,2013-03-21 16:27:00,
2013-03-21 12:32:00,29.3,13.8,29.66,SW,225,9.2,9.2,52,0.00,,,0.01,WeatherDisplay:10.37,2013-03-21 16:32:00,
2013-03-21 12:37:00,28.8,13.3,29.66,SW,225,9.2,9.2,52,0.00,,,0.01,WeatherDisplay:10.37,2013-03-21 16:37:00,
2013-03-21 12:42:00,28.0,10.8,29.65,NW,315,13.8,13.8,48,0.00,,,0.01,WeatherDisplay:10.37,2013-03-21 16:42:00,
2013-03-21 12:47:00,29.8,15.6,29.65,South,180,6.9,6.9,55,0.00,,,0.01,WeatherDisplay:10.37,2013-03-21 16:47:00,
2013-03-21 12:52:00,30.0,15.4,29.65,SW,225,9.2,9.2,54,0.00,,,0.01,WeatherDisplay:10.37,2013-03-21 16:52:00,
2013-03-21 12:57:00,30.6,15.9,29.65,South,180,5.8,5.8,54,0.00,,,0.01,WeatherDisplay:10.37,2013-03-21 16:57:00,
2013-03-21 13:02:00,31.3,16.5,29.65,SW,225,17.3,17.3,54,0.00,,,0.01,WeatherDisplay:10.37,2013-03-21 17:02:00,
2013-03-21 13:07:00,30.9,16.6,29.65,NW,315,5.8,5.8,55,0.00,,,0.01,WeatherDisplay:10.37,2013-03-21 17:07:00,
2013-03-21 13:12:00,30.7,16.0,29.65,SW,225,10.4,10.4,54,0.00,,,0.01,WeatherDisplay:10.37,2013-03-21 17:12:00,
2013-03-21 13:17:00,30.6,15.9,29.66,NW,315,5.8,5.8,54,0.00,,,0.01,WeatherDisplay:10.37,2013-03-21 17:17:00,
2013-03-21 13:23:00,29.8,15.6,29.65,SW,225,15.0,15.0,55,0.00,,,0.01,WeatherDisplay:10.37,2013-03-21 17:23:00,
2013-03-21 13:28:00,29.3,15.9,29.65,SW,225,6.9,6.9,57,0.00,,,0.01,WeatherDisplay:10.37,2013-03-21 17:28:00,
2013-03-21 13:33:00,29.8,16.8,29.65,North,0,11.5,11.5,58,0.00,,,0.01,WeatherDisplay:10.37,2013-03-21 17:33:00,
2013-03-21 13:38:00,29.8,17.2,29.64,SE,135,12.7,12.7,59,0.00,,,0.01,WeatherDisplay:10.37,2013-03-21 17:38:00,
2013-03-21 13:43:00,29.5,18.1,29.65,SW,225,12.7,12.7,62,0.00,,,0.01,WeatherDisplay:10.37,2013-03-21 17:43:00,
2013-03-21 13:48:00,29.8,19.1,29.64,WNW,292,12.7,12.7,64,0.00,,,0.01,WeatherDisplay:10.37,2013-03-21 17:48:00,
2013-03-21 13:53:00,30.0,19.7,29.64,West,270,5.8,5.8,65,0.00,,,0.01,WeatherDisplay:10.37,2013-03-21 17:53:00,
2013-03-21 13:58:00,30.4,19.3,29.64,SW,225,9.2,9.2,63,0.00,,,0.01,WeatherDisplay:10.37,2013-03-21 17:58:00,
2013-03-21 14:03:00,29.8,18.8,29.64,West,270,10.4,10.4,63,0.00,,,0.01,WeatherDisplay:10.37,2013-03-21 18:03:00,
2013-03-21 14:08:00,29.3,18.6,29.64,North,0,5.8,5.8,64,0.00,,,0.01,WeatherDisplay:10.37,2013-03-21 18:08:00,
2013-03-21 14:13:00,29.1,18.8,29.64,SE,135,12.7,12.7,65,0.00,,,0.01,WeatherDisplay:10.37,2013-03-21 18:13:00,
2013-03-21 14:18:00,28.8,18.5,29.64,SE,135,9.2,9.2,65,0.00,,,0.01,WeatherDisplay:10.37,2013-03-21 18:18:00,
2013-03-21 14:23:00,28.8,18.5,29.64,NW,315,16.1,16.1,65,0.00,,,0.01,WeatherDisplay:10.37,2013-03-21 18:23:00,
2013-03-21 14:28:00,29.3,19.3,29.63,West,270,12.7,12.7,66,0.00,,,0.01,WeatherDisplay:10.37,2013-03-21 18:28:00,
2013-03-21 14:33:00,28.9,19.0,29.63,NW,315,10.4,10.4,66,0.00,,,0.01,WeatherDisplay:10.37,2013-03-21 18:33:00,
2013-03-21 14:38:00,28.9,19.0,29.63,NW,315,15.0,15.0,66,0.00,,,0.01,WeatherDisplay:10.37,2013-03-21 18:38:00,
2013-03-21 14:43:00,28.2,17.2,29.63,WSW,248,13.8,13.8,63,0.00,,,0.01,WeatherDisplay:10.37,2013-03-21 18:43:00,
2013-03-21 14:48:00,28.6,19.7,29.63,SW,225,15.0,15.0,69,0.00,,,0.01,WeatherDisplay:10.37,2013-03-21 18:48:00,
2013-03-21 14:53:00,28.6,20.0,29.63,NW,315,10.4,10.4,70,0.00,,,0.01,WeatherDisplay:10.37,2013-03-21 18:53:00,
2013-03-21 14:58:00,28.8,20.2,29.63,West,270,13.8,13.8,70,0.00,,,0.01,WeatherDisplay:10.37,2013-03-21 18:58:00,
2013-03-21 15:03:00,28.6,20.0,29.63,WNW,292,10.4,10.4,70,0.00,,,0.01,WeatherDisplay:10.37,2013-03-21 19:03:00,
2013-03-21 15:08:00,28.6,20.4,29.63,West,270,12.7,12.7,71,0.00,,,0.01,WeatherDisplay:10.37,2013-03-21 19:08:00,
2013-03-21 15:13:00,28.6,20.4,29.62,SW,225,11.5,11.5,71,0.00,,,0.01,WeatherDisplay:10.37,2013-03-21 19:13:00,
2013-03-21 15:18:00,28.4,20.5,29.62,SW,225,15.0,15.0,72,0.00,,,0.01,WeatherDisplay:10.37,2013-03-21 19:18:00,
2013-03-21 15:23:00,28.8,21.5,29.62,West,270,12.7,12.7,74,0.00,,,0.01,WeatherDisplay:10.37,2013-03-21 19:23:00,
2013-03-21 15:28:00,28.9,22.0,29.62,SW,225,5.8,5.8,75,0.00,,,0.01,WeatherDisplay:10.37,2013-03-21 19:28:00,
2013-03-21 15:33:00,29.1,21.9,29.63,South,180,6.9,6.9,74,0.00,,,0.01,WeatherDisplay:10.37,2013-03-21 19:33:00,
2013-03-21 15:38:00,29.5,22.5,29.62,SW,225,15.0,15.0,75,0.00,,,0.01,WeatherDisplay:10.37,2013-03-21 19:38:00,
2013-03-21 15:43:00,29.1,21.9,29.62,SW,225,17.3,17.3,74,0.00,,,0.01,WeatherDisplay:10.37,2013-03-21 19:43:00,
2013-03-21 15:49:00,28.8,21.5,29.62,South,180,12.7,12.7,74,0.00,,,0.01,WeatherDisplay:10.37,2013-03-21 19:49:00,
2013-03-21 15:54:00,28.8,21.5,29.62,SW,225,10.4,10.4,74,0.00,,,0.01,WeatherDisplay:10.37,2013-03-21 19:54:00,
2013-03-21 15:59:00,28.8,21.5,29.62,West,270,9.2,9.2,74,0.00,,,0.01,WeatherDisplay:10.37,2013-03-21 19:59:00,
2013-03-21 16:04:00,28.9,21.7,29.62,SW,225,13.8,13.8,74,0.00,,,0.01,WeatherDisplay:10.37,2013-03-21 20:04:00,
2013-03-21 16:09:00,29.1,21.9,29.62,SW,225,5.8,5.8,74,0.00,,,0.01,WeatherDisplay:10.37,2013-03-21 20:09:00,
2013-03-21 16:14:00,29.5,22.2,29.62,East,90,5.8,5.8,74,0.00,,,0.01,WeatherDisplay:10.37,2013-03-21 20:14:00,
2013-03-21 16:19:00,29.5,22.2,29.62,NW,315,11.5,11.5,74,0.00,,,0.01,WeatherDisplay:10.37,2013-03-21 20:19:00,
2013-03-21 16:24:00,29.5,22.2,29.62,SW,225,9.2,9.2,74,0.00,,,0.01,WeatherDisplay:10.37,2013-03-21 20:24:00,
2013-03-21 16:29:00,30.0,23.1,29.62,West,270,3.5,3.5,75,0.00,,,0.01,WeatherDisplay:10.37,2013-03-21 20:29:00,
2013-03-21 16:34:00,30.9,23.3,29.62,SW,225,6.9,6.9,73,0.00,,,0.01,WeatherDisplay:10.37,2013-03-21 20:34:00,
2013-03-21 16:39:00,30.7,22.4,29.62,NW,315,5.8,5.8,71,0.00,,,0.01,WeatherDisplay:10.37,2013-03-21 20:39:00,
2013-03-21 16:44:00,30.6,21.9,29.62,NW,315,10.4,10.4,70,0.00,,,0.01,WeatherDisplay:10.37,2013-03-21 20:44:00,
2013-03-21 16:49:00,30.6,21.9,29.62,South,180,9.2,9.2,70,0.00,,,0.01,WeatherDisplay:10.37,2013-03-21 20:49:00,
2013-03-21 16:54:00,30.4,21.8,29.62,West,270,10.4,10.4,70,0.00,,,0.01,WeatherDisplay:10.37,2013-03-21 20:54:00,
2013-03-21 16:59:00,30.7,22.4,29.62,NW,315,5.8,5.8,71,0.00,,,0.01,WeatherDisplay:10.37,2013-03-21 20:59:00,
2013-03-21 17:04:00,30.6,22.3,29.62,NW,315,6.9,6.9,71,0.00,,,0.01,WeatherDisplay:10.37,2013-03-21 21:04:00,
2013-03-21 17:09:00,30.6,22.3,29.62,SW,225,9.2,9.2,71,0.00,,,0.01,WeatherDisplay:10.37,2013-03-21 21:09:00,
2013-03-21 17:14:00,30.4,22.4,29.62,WNW,292,6.9,6.9,72,0.00,,,0.01,WeatherDisplay:10.37,2013-03-21 21:14:00,
2013-03-21 17:19:00,30.0,22.4,29.62,SW,225,15.0,15.0,73,0.00,,,0.01,WeatherDisplay:10.37,2013-03-21 21:19:00,
2013-03-21 17:24:00,29.8,22.6,29.62,NW,315,10.4,10.4,74,0.00,,,0.01,WeatherDisplay:10.37,2013-03-21 21:24:00,
2013-03-21 17:29:00,29.8,22.9,29.62,East,90,10.4,10.4,75,0.00,,,0.01,WeatherDisplay:10.37,2013-03-21 21:29:00,
2013-03-21 17:34:00,29.8,22.9,29.62,SW,225,3.5,3.5,75,0.00,,,0.01,WeatherDisplay:10.37,2013-03-21 21:34:00,
2013-03-21 17:39:00,29.7,22.7,29.62,West,270,6.9,6.9,75,0.00,,,0.01,WeatherDisplay:10.37,2013-03-21 21:39:00,
2013-03-21 17:44:00,29.5,22.5,29.62,South,180,5.8,5.8,75,0.00,,,0.01,WeatherDisplay:10.37,2013-03-21 21:44:00,
2013-03-21 17:49:00,29.5,22.8,29.62,SW,225,8.1,8.1,76,0.00,,,0.01,WeatherDisplay:10.37,2013-03-21 21:49:00,
2013-03-21 17:54:00,29.1,22.5,29.62,West,270,4.6,4.6,76,0.00,,,0.01,WeatherDisplay:10.37,2013-03-21 21:54:00,
2013-03-21 17:59:00,28.9,22.6,29.62,SW,225,5.8,5.8,77,0.00,,,0.01,WeatherDisplay:10.37,2013-03-21 21:59:00,
2013-03-21 18:04:00,28.8,22.5,29.62,NE,45,10.4,10.4,77,0.00,,,0.01,WeatherDisplay:10.37,2013-03-21 22:04:00,
2013-03-21 18:09:00,28.8,22.8,29.62,East,90,10.4,10.4,78,0.00,,,0.01,WeatherDisplay:10.37,2013-03-21 22:09:00,
2013-03-21 18:14:00,28.9,22.9,29.62,WNW,292,6.9,6.9,78,0.00,,,0.01,WeatherDisplay:10.37,2013-03-21 22:14:00,
2013-03-21 18:19:00,28.9,23.2,29.62,SW,225,3.5,3.5,79,0.00,,,0.01,WeatherDisplay:10.37,2013-03-21 22:19:00,
2013-03-21 18:24:00,28.9,23.2,29.62,West,270,6.9,6.9,79,0.00,,,0.01,WeatherDisplay:10.37,2013-03-21 22:24:00,
2013-03-21 18:29:00,28.9,23.2,29.62,NW,315,3.5,3.8,79,0.00,,,0.01,WeatherDisplay:10.37,2013-03-21 22:29:00,
2013-03-21 18:34:00,28.9,23.2,29.62,NW,315,8.1,8.1,79,0.00,,,0.01,WeatherDisplay:10.37,2013-03-21 22:34:00,
2013-03-21 18:39:00,28.9,23.5,29.62,SW,225,5.8,5.8,80,0.00,,,0.01,WeatherDisplay:10.37,2013-03-21 22:39:00,
2013-03-21 18:44:00,29.1,23.7,29.62,NNW,338,3.5,3.5,80,0.00,,,0.01,WeatherDisplay:10.37,2013-03-21 22:44:00,
2013-03-21 18:49:00,29.1,23.7,29.62,SW,225,4.6,4.6,80,0.00,,,0.01,WeatherDisplay:10.37,2013-03-21 22:49:00,
2013-03-21 18:54:00,29.3,23.9,29.62,NE,45,3.5,3.5,80,0.00,,,0.01,WeatherDisplay:10.37,2013-03-21 22:54:00,
2013-03-21 18:59:00,29.3,23.9,29.62,West,270,3.5,3.5,80,0.00,,,0.01,WeatherDisplay:10.37,2013-03-21 22:59:00,
2013-03-21 19:04:00,29.3,23.6,29.62,SW,225,4.6,4.6,79,0.00,,,0.01,WeatherDisplay:10.37,2013-03-21 23:04:00,
2013-03-21 19:09:00,29.3,23.6,29.62,NW,315,2.3,2.3,79,0.00,,,0.01,WeatherDisplay:10.37,2013-03-21 23:09:00,
2013-03-21 19:14:00,29.3,23.6,29.62,SW,225,3.5,3.5,79,0.00,,,0.01,WeatherDisplay:10.37,2013-03-21 23:14:00,
2013-03-21 19:19:00,29.3,23.6,29.62,NW,315,5.8,5.8,79,0.00,,,0.01,WeatherDisplay:10.37,2013-03-21 23:19:00,
2013-03-21 19:24:00,29.1,23.4,29.62,SW,225,5.8,5.8,79,0.00,,,0.01,WeatherDisplay:10.37,2013-03-21 23:24:00,
2013-03-21 19:29:00,28.8,23.1,29.62,NW,315,4.5,4.5,79,0.00,,,0.01,WeatherDisplay:10.37,2013-03-21 23:29:00,
2013-03-21 19:34:00,28.4,22.7,29.62,North,0,2.3,2.3,79,0.00,,,0.01,WeatherDisplay:10.37,2013-03-21 23:34:00,
2013-03-21 19:39:00,28.4,22.7,29.62,NW,315,2.3,2.3,79,0.00,,,0.01,WeatherDisplay:10.37,2013-03-21 23:39:00,
2013-03-21 19:44:00,28.4,23.0,29.62,West,270,3.5,3.5,80,0.00,,,0.01,WeatherDisplay:10.37,2013-03-21 23:44:00,
2013-03-21 19:50:00,28.6,22.9,29.62,SW,225,3.5,3.5,79,0.00,,,0.01,WeatherDisplay:10.37,2013-03-21 23:50:00,
2013-03-21 19:55:00,28.6,22.9,29.63,West,270,3.5,3.5,79,0.00,,,0.01,WeatherDisplay:10.37,2013-03-21 23:55:00,
2013-03-21 20:00:00,28.8,23.1,29.63,NW,315,3.5,3.5,79,0.00,,,0.01,WeatherDisplay:10.37,2013-03-22 00:00:00,
2013-03-21 20:05:00,28.8,22.8,29.63,NW,315,3.8,3.8,78,0.00,,,0.01,WeatherDisplay:10.37,2013-03-22 00:05:00,
2013-03-21 20:10:00,28.6,22.6,29.63,NW,315,4.6,4.6,78,0.00,,,0.01,WeatherDisplay:10.37,2013-03-22 00:10:00,
2013-03-21 20:15:00,28.8,22.5,29.63,South,180,3.5,3.5,77,0.00,,,0.01,WeatherDisplay:10.37,2013-03-22 00:15:00,
2013-03-21 20:20:00,28.8,22.5,29.63,NW,315,3.5,3.5,77,0.00,,,0.01,WeatherDisplay:10.37,2013-03-22 00:20:00,
2013-03-21 20:25:00,28.6,22.3,29.63,NW,315,5.8,5.8,77,0.00,,,0.01,WeatherDisplay:10.37,2013-03-22 00:25:00,
2013-03-21 20:30:00,28.4,21.8,29.63,West,270,3.5,3.5,76,0.00,,,0.01,WeatherDisplay:10.37,2013-03-22 00:30:00,
2013-03-21 20:35:00,28.4,21.8,29.63,NW,315,3.5,3.5,76,0.00,,,0.01,WeatherDisplay:10.37,2013-03-22 00:35:00,
2013-03-21 20:40:00,28.4,21.8,29.64,WNW,292,5.8,5.8,76,0.00,,,0.01,WeatherDisplay:10.37,2013-03-22 00:40:00,
2013-03-21 20:45:00,28.6,21.7,29.63,West,270,4.6,4.6,75,0.00,,,0.01,WeatherDisplay:10.37,2013-03-22 00:45:00,
2013-03-21 20:50:00,28.6,21.7,29.64,West,270,4.6,4.6,75,0.00,,,0.01,WeatherDisplay:10.37,2013-03-22 00:50:00,
2013-03-21 20:55:00,28.0,19.8,29.64,NW,315,3.5,3.5,71,0.00,,,0.01,WeatherDisplay:10.37,2013-03-22 00:55:00,
2013-03-21 21:00:00,27.9,19.7,29.64,NW,315,3.5,3.5,71,0.00,,,0.01,WeatherDisplay:10.37,2013-03-22 01:00:00,
2013-03-21 21:05:00,27.5,19.7,29.64,NW,315,5.8,5.8,72,0.00,,,0.01,WeatherDisplay:10.37,2013-03-22 01:05:00,
2013-03-21 21:10:00,27.5,19.7,29.65,NW,315,3.5,3.5,72,0.00,,,0.01,WeatherDisplay:10.37,2013-03-22 01:10:00,
2013-03-21 21:15:00,27.5,19.7,29.65,West,270,5.8,5.8,72,0.00,,,0.01,WeatherDisplay:10.37,2013-03-22 01:15:00,
2013-03-21 21:20:00,27.5,19.7,29.65,NW,315,4.6,4.6,72,0.00,,,0.01,WeatherDisplay:10.37,2013-03-22 01:20:00,
2013-03-21 21:25:00,27.5,19.3,29.65,NE,45,3.5,3.5,71,0.00,,,0.01,WeatherDisplay:10.37,2013-03-22 01:25:00,
2013-03-21 21:30:00,27.5,19.0,29.64,NW,315,3.5,3.5,70,0.00,,,0.01,WeatherDisplay:10.37,2013-03-22 01:30:00,
2013-03-21 21:35:00,27.5,18.3,29.64,North,0,2.3,2.3,68,0.00,,,0.01,WeatherDisplay:10.37,2013-03-22 01:35:00,
2013-03-21 21:40:00,27.3,17.8,29.65,West,270,3.5,3.5,67,0.00,,,0.01,WeatherDisplay:10.37,2013-03-22 01:40:00,
2013-03-21 21:45:00,27.3,17.8,29.65,NW,315,3.5,3.5,67,0.00,,,0.01,WeatherDisplay:10.37,2013-03-22 01:45:00,
2013-03-21 21:50:00,27.3,17.8,29.65,NW,315,4.6,4.6,67,0.00,,,0.01,WeatherDisplay:10.37,2013-03-22 01:50:00,
2013-03-21 21:55:00,27.3,17.5,29.65,NW,315,3.5,3.5,66,0.00,,,0.01,WeatherDisplay:10.37,2013-03-22 01:55:00,
2013-03-21 22:00:00,27.3,17.5,29.65,SW,225,3.5,3.5,66,0.00,,,0.01,WeatherDisplay:10.37,2013-03-22 02:00:00,
2013-03-21 22:05:00,27.1,17.3,29.65,NW,315,3.5,3.8,66,0.00,,,0.01,WeatherDisplay:10.37,2013-03-22 02:05:00,
2013-03-21 22:10:00,27.1,16.9,29.65,NE,45,3.5,3.5,65,0.00,,,0.01,WeatherDisplay:10.37,2013-03-22 02:10:00,
2013-03-21 22:15:00,27.0,16.8,29.65,West,270,3.5,3.5,65,0.00,,,0.01,WeatherDisplay:10.37,2013-03-22 02:15:00,
2013-03-21 22:20:00,27.0,16.8,29.66,North,0,4.6,4.6,65,0.00,,,0.01,WeatherDisplay:10.37,2013-03-22 02:20:00,
2013-03-21 22:25:00,27.0,16.8,29.66,WNW,292,3.5,3.5,65,0.00,,,0.01,WeatherDisplay:10.37,2013-03-22 02:25:00,
2013-03-21 22:30:00,27.0,16.8,29.66,West,270,4.6,4.6,65,0.00,,,0.01,WeatherDisplay:10.37,2013-03-22 02:30:00,
2013-03-21 22:35:00,26.8,16.6,29.66,West,270,4.6,4.6,65,0.00,,,0.01,WeatherDisplay:10.37,2013-03-22 02:35:00,
2013-03-21 22:40:00,26.6,16.4,29.66,West,270,3.5,3.5,65,0.00,,,0.01,WeatherDisplay:10.37,2013-03-22 02:40:00,
2013-03-21 22:45:00,26.4,16.9,29.66,NW,315,5.8,5.8,67,0.00,,,0.01,WeatherDisplay:10.37,2013-03-22 02:45:00,
2013-03-21 22:50:00,26.4,16.9,29.66,West,270,4.6,4.6,67,0.00,,,0.01,WeatherDisplay:10.37,2013-03-22 02:50:00,
2013-03-21 22:55:00,26.4,16.9,29.66,NW,315,3.5,3.5,67,0.00,,,0.01,WeatherDisplay:10.37,2013-03-22 02:55:00,
2013-03-21 23:00:00,26.4,16.9,29.66,West,270,3.5,3.5,67,0.00,,,0.01,WeatherDisplay:10.37,2013-03-22 03:00:00,
2013-03-21 23:05:00,26.4,16.9,29.66,NW,315,2.3,2.3,67,0.00,,,0.01,WeatherDisplay:10.37,2013-03-22 03:05:00,
2013-03-21 23:10:00,26.4,16.9,29.66,NW,315,3.5,3.5,67,0.00,,,0.01,WeatherDisplay:10.37,2013-03-22 03:10:00,
2013-03-21 23:15:00,26.4,17.3,29.66,West,270,4.6,4.6,68,0.00,,,0.01,WeatherDisplay:10.37,2013-03-22 03:15:00,
2013-03-21 23:20:00,26.4,17.3,29.66,West,270,2.3,3.1,68,0.00,,,0.01,WeatherDisplay:10.37,2013-03-22 03:20:00,
2013-03-21 23:25:00,26.4,17.3,29.66,West,270,3.5,3.5,68,0.00,,,0.01,WeatherDisplay:10.37,2013-03-22 03:25:00,
2013-03-21 23:30:00,26.4,17.3,29.66,West,270,3.5,3.5,68,0.00,,,0.01,WeatherDisplay:10.37,2013-03-22 03:30:00,
2013-03-21 23:35:00,26.4,17.3,29.66,NW,315,3.5,3.5,68,0.00,,,0.01,WeatherDisplay:10.37,2013-03-22 03:35:00,
2013-03-21 23:40:00,26.4,17.3,29.67,SW,225,3.5,3.5,68,0.00,,,0.01,WeatherDisplay:10.37,2013-03-22 03:40:00,
2013-03-21 23:45:00,26.4,17.3,29.66,West,270,3.5,3.5,68,0.00,,,0.01,WeatherDisplay:10.37,2013-03-22 03:45:00,
2013-03-21 23:50:00,26.4,17.3,29.66,NW,315,3.5,3.5,68,0.00,,,0.01,WeatherDisplay:10.37,2013-03-22 03:50:00,
2013-03-21 23:55:00,26.6,16.8,29.67,West,270,2.3,2.3,66,0.00,,,0.01,WeatherDisplay:10.37,2013-03-22 03:55:00,